Time;durP1;ratioP1;P1;durP2;ratioP2;P2;SDS_P1;SDS_P2;PMS_P1;PMS_P2;Temp;Humidity;BMP_temperature;BMP_pressure;BME280_temperature;BME280_humidity;BME280_pressure;Samples;Min_cycle;Max_cycle;Signal;HPM_P1;HPM_P2
2021/04/30 00:01:08;;;;;;;;;;;;;;;21.17;43.63;100709.84;5017129;28;1974;-45
2021/04/30 00:03:33;;;;;;;;;;;;;;;21.17;43.67;100720.91;5016792;28;1070;-53
2021/04/30 00:05:59;;;;;;;;;;;;;;;21.42;43.05;100717.94;5017290;28;804;-45
2021/04/30 00:08:24;;;;;;;;;;;;;;;21.53;42.91;100702.78;5017158;28;736;-54
2021/04/30 00:10:50;;;;;;;;;;;;;;;21.45;42.90;100698.78;5017494;28;783;-53
2021/04/30 00:13:15;;;;;;;;;;;;;;;21.44;42.87;100702.69;5017035;28;791;-54
2021/04/30 00:15:41;;;;;;;;;;;;;;;21.42;42.85;100702.19;5017010;28;855;-47
2021/04/30 00:18:06;;;;;;;;;;;;;;;21.40;42.79;100701.66;5016703;28;956;-55
2021/04/30 00:20:32;;;;;;;;;;;;;;;21.34;43.25;100705.66;5017437;28;772;-46
2021/04/30 00:22:57;;;;;;;;;;;;;;;21.38;43.16;100709.44;5017204;28;1902;-55
2021/04/30 00:25:23;;;;;;;;;;;;;;;21.41;42.98;100708.03;5016843;28;1510;-53
2021/04/30 00:27:48;;;;;;;;;;;;;;;21.36;43.27;100708.94;5016774;28;807;-53
2021/04/30 00:30:14;;;;;;;;;;;;;;;21.43;43.14;100712.09;5017119;28;773;-46
2021/04/30 00:32:40;;;;;;;;;;;;;;;21.48;42.74;100700.94;5015382;28;1380;-53
2021/04/30 00:35:05;;;;;;;;;;;;;;;21.37;43.15;100713.34;5036445;28;780;-52
2021/04/30 00:37:31;;;;;;;;;;;;;;;21.40;42.99;100698.88;5036972;28;771;-53
2021/04/30 00:39:56;;;;;;;;;;;;;;;21.31;43.23;100706.28;5036617;28;732;-48
2021/04/30 00:42:22;;;;;;;;;;;;;;;21.28;43.27;100712.41;5034673;28;1906;-46
2021/04/30 00:44:47;;;;;;;;;;;;;;;21.53;42.82;100698.09;5036470;28;808;-52
2021/04/30 00:47:48;;;;;;;;;;;;;;;21.45;42.87;100701.56;5028067;28;967;-54
2021/04/30 00:50:14;;;;;;;;;;;;;;;21.18;43.46;100703.22;4937021;29;1327;-53
2021/04/30 00:52:39;;;;;;;;;;;;;;;21.42;43.02;100707.72;5003244;28;880;-53
2021/04/30 00:55:06;;;;;;;;;;;;;;;21.40;43.06;100698.88;5020940;28;776;-55
2021/04/30 00:57:31;;;;;;;;;;;;;;;21.18;43.30;100694.91;5020916;28;752;-45
2021/04/30 00:59:57;;;;;;;;;;;;;;;21.32;43.19;100697.69;5020720;28;784;-54
2021/04/30 01:02:23;;;;;;;;;;;;;;;21.36;42.83;100700.63;5020374;28;1906;-52
2021/04/30 01:04:48;;;;;;;;;;;;;;;21.06;43.70;100697.34;5019200;28;788;-54
2021/04/30 01:07:13;;;;;;;;;;;;;;;21.20;43.45;100695.41;5020912;28;809;-53
2021/04/30 01:09:39;;;;;;;;;;;;;;;21.16;43.60;100708.22;5019442;28;1231;-46
2021/04/30 01:12:05;;;;;;;;;;;;;;;21.26;43.29;100706.38;5020649;28;752;-54
2021/04/30 01:14:30;;;;;;;;;;;;;;;21.44;42.67;100693.56;5019479;28;780;-52
2021/04/30 01:16:55;;;;;;;;;;;;;;;21.24;43.31;100695.63;5020125;28;960;-53
2021/04/30 01:19:22;;;;;;;;;;;;;;;21.36;42.89;100695.94;5020244;28;792;-46
2021/04/30 01:21:57;;;;;;;;;;;;;;;21.50;42.59;100695.09;5020235;28;1923;-53
2021/04/30 01:24:22;;;;;;;;;;;;;;;;;;5002338;28;1025;-46
2021/04/30 01:26:48;;;;;;;;;;;;;;;21.12;43.46;100698.88;5020114;28;847;-46
2021/04/30 01:29:14;;;;;;;;;;;;;;;21.17;43.35;100696.03;5020070;28;840;-52
2021/04/30 01:31:39;;;;;;;;;;;;;;;21.08;43.54;100684.03;5019851;28;945;-54
2021/04/30 01:34:05;;;;;;;;;;;;;;;;;;5031598;28;1116;-52
2021/04/30 01:36:31;;;;;;;;;;;;;;;21.32;43.10;100677.47;5039800;28;839;-51
2021/04/30 01:38:56;;;;;;;;;;;;;;;21.31;43.12;100686.94;5039931;28;819;-53
2021/04/30 01:41:22;;;;;;;;;;;;;;;21.33;43.18;100684.66;5039629;28;1906;-49
2021/04/30 01:43:47;;;;;;;;;;;;;;;21.37;42.95;100691.22;5039609;28;759;-55
2021/04/30 01:46:13;;;;;;;;;;;;;;;21.30;43.13;100676.97;5039442;28;959;-55
2021/04/30 01:48:38;;;;;;;;;;;;;;;21.41;42.95;100678.41;5019751;28;1011;-53
2021/04/30 01:51:04;;;;;;;;;;;;;;;21.46;42.49;100671.94;5019984;28;876;-46
2021/04/30 01:53:30;;;;;;;;;;;;;;;21.26;43.07;100675.97;5019476;28;816;-49
2021/04/30 01:55:56;;;;;;;;;;;;;;;21.36;42.92;100675.75;5019747;28;760;-53
2021/04/30 01:58:21;;;;;;;;;;;;;;;21.32;43.06;100677.47;5019608;28;764;-46
2021/04/30 02:00:47;;;;;;;;;;;;;;;21.57;42.46;100672.56;5019355;28;1906;-54
2021/04/30 02:03:12;;;;;;;;;;;;;;;21.48;42.62;100673.28;5017698;28;951;-46
2021/04/30 02:05:38;;;;;;;;;;;;;;;21.49;42.59;100674.91;5019383;28;859;-50
2021/04/30 02:08:04;;;;;;;;;;;;;;;21.42;42.84;100663.44;5019330;28;807;-52
2021/04/30 02:10:30;;;;;;;;;;;;;;;21.44;42.83;100669.47;5019478;28;832;-53
2021/04/30 02:12:55;;;;;;;;;;;;;;;21.25;43.41;100663.25;5019086;28;787;-52
2021/04/30 02:15:22;;;;;;;;;;;;;;;21.39;42.88;100661.28;5019316;28;798;-47
2021/04/30 02:17:47;;;;;;;;;;;;;;;21.49;42.71;100650.00;5019086;28;956;-54
2021/04/30 02:20:13;;;;;;;;;;;;;;;21.37;42.94;100649.72;5018951;28;749;-52
2021/04/30 02:22:39;;;;;;;;;;;;;;;21.46;42.63;100658.09;5019071;28;1989;-52
2021/04/30 02:25:04;;;;;;;;;;;;;;;21.33;42.87;100657.00;5019149;28;1036;-50
2021/04/30 02:27:30;;;;;;;;;;;;;;;21.41;42.72;100658.22;5018862;28;844;-48
2021/04/30 02:29:55;;;;;;;;;;;;;;;21.35;42.91;100658.34;5018979;28;812;-53
2021/04/30 02:32:22;;;;;;;;;;;;;;;21.29;43.21;100655.97;5018419;28;1011;-46
2021/04/30 02:34:47;;;;;;;;;;;;;;;21.23;43.14;100655.25;5036334;28;1243;-53
2021/04/30 02:37:14;;;;;;;;;;;;;;;21.33;43.04;100659.75;5038824;28;748;-52
2021/04/30 02:39:39;;;;;;;;;;;;;;;21.11;43.60;100666.03;5038528;28;843;-53
2021/04/30 02:42:05;;;;;;;;;;;;;;;21.17;43.32;100668.38;5038486;28;1914;-51
2021/04/30 02:44:30;;;;;;;;;;;;;;;21.18;43.12;100674.72;5038757;28;844;-53
2021/04/30 02:46:56;;;;;;;;;;;;;;;21.24;43.14;100669.91;5013844;28;1112;-52
2021/04/30 02:49:27;;;;;;;;;;;;;;;21.19;43.13;100666.09;5018943;28;740;-47
2021/04/30 02:51:53;;;;;;;;;;;;;;;21.24;42.98;100661.59;5019186;28;780;-48
2021/04/30 02:54:18;;;;;;;;;;;;;;;21.41;42.67;100669.31;5018513;28;864;-46
2021/04/30 02:56:44;;;;;;;;;;;;;;;21.40;42.61;100664.88;5018552;28;749;-50
2021/04/30 02:59:09;;;;;;;;;;;;;;;21.15;43.15;100669.81;5018508;28;816;-54
2021/04/30 03:01:34;;;;;;;;;;;;;;;21.32;43.05;100672.78;5017708;28;1977;-50
2021/04/30 03:04:00;;;;;;;;;;;;;;;21.30;42.92;100683.31;5018632;28;807;-52
2021/04/30 03:06:25;;;;;;;;;;;;;;;;;;5018360;28;820;-54
2021/04/30 03:08:52;;;;;;;;;;;;;;;21.29;43.12;100689.16;5018097;28;808;-46
2021/04/30 03:11:18;;;;;;;;;;;;;;;21.17;43.40;100693.25;5018521;28;791;-45
2021/04/30 03:13:43;;;;;;;;;;;;;;;21.20;43.10;100689.88;5018045;28;776;-53
2021/04/30 03:16:09;;;;;;;;;;;;;;;21.09;43.58;100693.97;5017673;28;768;-43
2021/04/30 03:18:34;;;;;;;;;;;;;;;21.07;43.34;100700.94;5017659;28;960;-62
2021/04/30 03:21:00;;;;;;;;;;;;;;;21.15;43.08;100703.00;5017963;28;1906;-54
2021/04/30 03:23:25;;;;;;;;;;;;;;;21.27;42.80;100705.25;5017713;28;871;-44
2021/04/30 03:25:50;;;;;;;;;;;;;;;21.17;43.17;100700.75;5017839;28;1034;-47
2021/04/30 03:28:16;;;;;;;;;;;;;;;21.31;42.81;100698.00;5018219;28;802;-45
2021/04/30 03:30:41;;;;;;;;;;;;;;;21.23;43.07;100705.03;5016329;28;1151;-45
2021/04/30 03:33:07;;;;;;;;;;;;;;;21.13;43.26;100703.28;5021297;28;947;-45
2021/04/30 03:35:32;;;;;;;;;;;;;;;21.19;43.23;100704.81;5037653;28;760;-47
2021/04/30 03:38:00;;;;;;;;;;;;;;;21.20;43.07;100700.94;5037611;28;866;-45
2021/04/30 03:40:26;;;;;;;;;;;;;;;21.19;43.00;100704.81;5037497;28;899;-46
2021/04/30 03:42:51;;;;;;;;;;;;;;;21.28;43.11;100716.00;5037538;28;1915;-45
2021/04/30 03:45:16;;;;;;;;;;;;;;;21.16;43.37;100719.25;5037120;28;712;-46
2021/04/30 03:47:42;;;;;;;;;;;;;;;21.23;43.11;100715.28;5024864;28;999;-45
2021/04/30 03:50:07;;;;;;;;;;;;;;;21.30;42.88;100712.94;5017415;28;736;-46
2021/04/30 03:52:33;;;;;;;;;;;;;;;21.34;42.83;100711.19;5017082;28;796;-64
2021/04/30 03:54:58;;;;;;;;;;;;;;;21.39;42.67;100711.06;5017497;28;843;-47
2021/04/30 03:57:24;;;;;;;;;;;;;;;21.05;43.50;100717.81;5017278;28;523;-66
2021/04/30 03:59:49;;;;;;;;;;;;;;;21.32;42.77;100716.19;5017338;28;776;-61
2021/04/30 04:02:15;;;;;;;;;;;;;;;21.23;43.13;100715.28;5016983;28;1914;-49
2021/04/30 04:04:40;;;;;;;;;;;;;;;21.12;43.29;100726.53;5017437;28;736;-47
2021/04/30 04:07:06;;;;;;;;;;;;;;;21.27;43.20;100727.38;5017492;28;799;-58
2021/04/30 04:09:31;;;;;;;;;;;;;;;21.19;43.01;100738.00;5016975;28;807;-45
2021/04/30 04:11:56;;;;;;;;;;;;;;;21.17;43.15;100734.75;5017112;28;773;-59
2021/04/30 04:14:22;;;;;;;;;;;;;;;21.28;42.92;100740.06;5016923;28;780;-44
2021/04/30 04:16:47;;;;;;;;;;;;;;;21.23;42.92;100738.22;5016711;28;933;-61
2021/04/30 04:19:15;;;;;;;;;;;;;;;21.37;42.83;100739.03;5016911;28;772;-60
2021/04/30 04:21:40;;;;;;;;;;;;;;;21.31;42.87;100737.50;5016990;28;1961;-54
2021/04/30 04:24:06;;;;;;;;;;;;;;;21.40;42.80;100753.41;5016984;28;815;-61
2021/04/30 04:26:31;;;;;;;;;;;;;;;21.41;42.63;100755.84;5015955;28;1060;-62
2021/04/30 04:28:57;;;;;;;;;;;;;;;21.43;42.65;100753.59;5016962;28;840;-45
2021/04/30 04:31:22;;;;;;;;;;;;;;;21.25;43.11;100760.03;5016816;28;928;-56
2021/04/30 04:33:48;;;;;;;;;;;;;;;21.31;42.92;100762.41;5025987;28;1164;-45
2021/04/30 04:36:13;;;;;;;;;;;;;;;21.47;42.86;100762.09;5036613;28;752;-59
2021/04/30 04:38:39;;;;;;;;;;;;;;;21.34;42.88;100760.97;5037037;28;811;-58
2021/04/30 04:41:04;;;;;;;;;;;;;;;21.39;42.94;100760.84;5036695;28;1902;-50
2021/04/30 04:43:30;;;;;;;;;;;;;;;21.41;42.59;100766.13;5036439;28;744;-46
2021/04/30 04:45:55;;;;;;;;;;;;;;;21.40;42.97;100753.41;5036515;28;808;-61
2021/04/30 04:48:20;;;;;;;;;;;;;;;21.27;43.14;100766.09;5018802;28;956;-52
2021/04/30 04:50:46;;;;;;;;;;;;;;;21.42;42.80;100768.56;5016649;28;894;-60
2021/04/30 04:53:11;;;;;;;;;;;;;;;21.43;42.99;100777.69;5016763;28;832;-47
2021/04/30 04:55:37;;;;;;;;;;;;;;;21.31;42.84;100778.19;5016561;28;855;-60
2021/04/30 04:58:02;;;;;;;;;;;;;;;21.36;42.85;100764.25;5016539;28;521;-45
2021/04/30 05:00:28;;;;;;;;;;;;;;;21.58;42.46;100751.69;5016814;28;836;-58
2021/04/30 05:02:53;;;;;;;;;;;;;;;21.52;42.34;100751.78;5015948;28;1989;-60
2021/04/30 05:05:19;;;;;;;;;;;;;;;21.66;42.20;100756.50;5016893;28;745;-58
2021/04/30 05:07:44;;;;;;;;;;;;;;;21.66;42.16;100762.03;5016404;28;1003;-46
2021/04/30 05:10:10;;;;;;;;;;;;;;;21.72;42.34;100766.31;5014853;28;784;-48
2021/04/30 05:12:35;;;;;;;;;;;;;;;21.82;41.80;100763.34;5015338;28;759;-60
2021/04/30 05:15:01;;;;;;;;;;;;;;;21.79;42.02;100754.84;5015932;28;812;-54
2021/04/30 05:17:26;;;;;;;;;;;;;;;21.93;41.75;100754.81;5015236;28;936;-45
2021/04/30 05:19:52;;;;;;;;;;;;;;;21.93;41.79;100754.81;5016139;28;866;-62
2021/04/30 05:22:17;;;;;;;;;;;;;;;21.77;42.14;100760.69;5016021;28;1975;-60
2021/04/30 05:24:43;;;;;;;;;;;;;;;21.89;42.07;100749.06;5015307;28;1114;-57
2021/04/30 05:27:10;;;;;;;;;;;;;;;21.77;42.49;100746.84;5016986;28;768;-47
2021/04/30 05:29:38;;;;;;;;;;;;;;;21.96;42.08;100760.53;5016845;28;819;-60
2021/04/30 05:32:03;;;;;;;;;;;;;;;21.91;42.10;100757.06;5015453;28;968;-52
2021/04/30 05:34:29;;;;;;;;;;;;;;;22.03;41.83;100760.97;5031232;28;1140;-59
2021/04/30 05:36:54;;;;;;;;;;;;;;;22.07;41.82;100768.63;5036120;28;744;-60
2021/04/30 05:39:20;;;;;;;;;;;;;;;21.88;42.38;100767.66;5039308;28;768;-55
2021/04/30 05:41:45;;;;;;;;;;;;;;;21.48;43.30;100772.06;5039530;28;1978;-59
2021/04/30 05:44:11;;;;;;;;;;;;;;;21.35;43.56;100771.72;5041244;28;863;-49
2021/04/30 05:46:36;;;;;;;;;;;;;;;21.59;43.12;100767.13;5036234;28;995;-58
2021/04/30 05:49:02;;;;;;;;;;;;;;;21.74;42.78;100769.63;5019696;28;756;-47
2021/04/30 05:51:27;;;;;;;;;;;;;;;21.95;42.30;100760.84;5019710;28;768;-61
2021/04/30 05:53:53;;;;;;;;;;;;;;;21.96;42.27;100763.31;5019788;28;760;-64
2021/04/30 05:56:18;;;;;;;;;;;;;;;22.19;41.90;100763.38;5018600;28;826;-57
2021/04/30 05:58:43;;;;;;;;;;;;;;;22.24;41.59;100765.22;5019445;28;728;-62
2021/04/30 06:01:09;;;;;;;;;;;;;;;22.31;41.49;100760.84;5019466;28;1906;-61
2021/04/30 06:03:34;;;;;;;;;;;;;;;22.35;41.46;100761.91;5018890;28;952;-62
2021/04/30 06:06:00;;;;;;;;;;;;;;;21.78;42.58;100762.31;5019584;28;876;-53
2021/04/30 06:08:25;;;;;;;;;;;;;;;21.20;44.08;100767.31;5019388;28;860;-49
2021/04/30 06:10:51;;;;;;;;;;;;;;;21.30;43.72;100771.00;5018909;28;833;-54
2021/04/30 06:13:16;;;;;;;;;;;;;;;21.44;43.53;100780.13;5019135;28;820;-57
2021/04/30 06:15:42;;;;;;;;;;;;;;;21.80;42.48;100776.69;5018766;28;882;-46
2021/04/30 06:18:07;;;;;;;;;;;;;;;21.95;42.17;100772.78;5017462;28;1011;-44
2021/04/30 06:20:32;;;;;;;;;;;;;;;21.64;43.13;100780.88;5019214;28;761;-54
2021/04/30 06:22:58;;;;;;;;;;;;;;;21.75;42.68;100782.31;5018737;28;1906;-44
2021/04/30 06:25:23;;;;;;;;;;;;;;;21.81;42.65;100789.41;5018534;28;1175;-46
2021/04/30 06:27:49;;;;;;;;;;;;;;;22.02;42.27;100778.69;5019000;28;828;-57
2021/04/30 06:30:14;;;;;;;;;;;;;;;22.08;41.88;100790.47;5018341;28;818;-59
2021/04/30 06:32:42;;;;;;;;;;;;;;;22.17;41.68;100791.38;5017840;28;913;-58
2021/04/30 06:35:08;;;;;;;;;;;;;;;22.18;41.54;100794.97;5038545;28;799;-45
2021/04/30 06:37:34;;;;;;;;;;;;;;;22.30;41.38;100808.25;5038524;28;843;-46
2021/04/30 06:40:00;;;;;;;;;;;;;;;22.16;41.90;100809.13;5036444;28;1355;-46
2021/04/30 06:42:25;;;;;;;;;;;;;;;22.24;41.51;100815.06;5037527;28;1971;-57
2021/04/30 06:44:52;;;;;;;;;;;;;;;22.27;41.49;100803.34;5038397;28;745;-44
2021/04/30 06:47:18;;;;;;;;;;;;;;;22.45;41.28;100807.94;5028404;28;963;-48
2021/04/30 06:49:43;;;;;;;;;;;;;;;22.00;42.11;100822.47;5017723;28;816;-58
2021/04/30 06:52:08;;;;;;;;;;;;;;;21.83;42.58;100814.81;5018395;28;867;-45
2021/04/30 06:54:34;;;;;;;;;;;;;;;21.44;43.40;100820.81;5018416;28;749;-58
2021/04/30 06:56:59;;;;;;;;;;;;;;;21.78;42.78;100822.41;5018643;28;852;-59
2021/04/30 06:59:25;;;;;;;;;;;;;;;22.01;42.07;100829.66;5018447;28;756;-59
2021/04/30 07:01:50;;;;;;;;;;;;;;;22.00;42.22;100828.00;5016518;28;1906;-45
2021/04/30 07:04:18;;;;;;;;;;;;;;;22.25;41.83;100825.03;5018098;28;820;-45
2021/04/30 07:06:44;;;;;;;;;;;;;;;22.14;41.76;100825.22;5017626;28;760;-43
2021/04/30 07:09:09;;;;;;;;;;;;;;;21.80;42.80;100820.97;5017655;28;772;-46
2021/04/30 07:11:35;;;;;;;;;;;;;;;21.65;43.14;100824.03;5018063;28;752;-59
2021/04/30 07:14:02;;;;;;;;;;;;;;;21.48;43.41;100821.84;5018081;28;768;-59
2021/04/30 07:16:28;;;;;;;;;;;;;;;21.90;42.30;100827.44;5017340;28;960;-56
2021/04/30 07:18:53;;;;;;;;;;;;;;;21.99;42.19;100831.94;5018003;28;764;-57
2021/04/30 07:21:18;;;;;;;;;;;;;;;22.15;41.75;100831.59;5017500;28;1902;-44
2021/04/30 07:23:44;;;;;;;;;;;;;;;22.25;41.48;100830.56;5017253;28;768;-42
2021/04/30 07:26:09;;;;;;;;;;;;;;;22.12;42.12;100827.50;5017899;28;1101;-58
2021/04/30 07:28:35;;;;;;;;;;;;;;;22.22;41.79;100824.50;5017736;28;779;-60
2021/04/30 07:31:02;;;;;;;;;;;;;;;22.30;41.67;100822.13;5017163;28;808;-57
2021/04/30 07:33:28;;;;;;;;;;;;;;;21.87;42.44;100829.66;5023240;28;1003;-45
2021/04/30 07:35:53;;;;;;;;;;;;;;;21.68;42.98;100828.94;5037428;28;817;-57
2021/04/30 07:38:19;;;;;;;;;;;;;;;21.59;43.23;100825.25;5036921;28;775;-47
2021/04/30 07:40:44;;;;;;;;;;;;;;;21.91;42.46;100821.56;5037607;28;752;-45
2021/04/30 07:43:10;;;;;;;;;;;;;;;22.21;41.82;100816.50;5037193;28;1913;-43
2021/04/30 07:45:36;;;;;;;;;;;;;;;22.16;42.02;100811.06;5036792;28;771;-56
2021/04/30 07:48:01;;;;;;;;;;;;;;;22.06;42.26;100814.88;5022044;28;1366;-44
2021/04/30 07:50:27;;;;;;;;;;;;;;;21.73;42.88;100803.94;5017877;28;770;-56
2021/04/30 07:52:52;;;;;;;;;;;;;;;21.76;42.70;100811.63;5017312;28;809;-44
2021/04/30 07:55:18;;;;;;;;;;;;;;;21.46;43.35;100802.78;5017636;28;743;-44
2021/04/30 07:57:43;;;;;;;;;;;;;;;21.81;42.68;100807.94;5017106;28;821;-57
2021/04/30 08:00:09;;;;;;;;;;;;;;;22.18;41.75;100809.63;5016813;28;830;-53
2021/04/30 08:02:43;;;;;;;;;;;;;;;22.29;41.70;100809.41;5015641;28;1981;-57
2021/04/30 08:05:09;;;;;;;;;;;;;;;22.18;41.75;100803.28;5016454;28;861;-57
2021/04/30 08:07:34;;;;;;;;;;;;;;;21.88;42.55;100806.41;5016768;28;855;-56
2021/04/30 08:10:00;;;;;;;;;;;;;;;21.69;42.93;100800.16;5017148;28;745;-57
2021/04/30 08:12:26;;;;;;;;;;;;;;;21.77;42.69;100796.69;4999406;28;1136;-57
2021/04/30 08:14:52;;;;;;;;;;;;;;;22.00;42.24;100793.97;5016636;28;938;-48
2021/04/30 08:17:18;;;;;;;;;;;;;;;22.14;41.97;100786.47;5016708;28;1015;-44
2021/04/30 08:19:46;;;;;;;;;;;;;;;22.31;41.58;100787.75;5016534;28;800;-44
2021/04/30 08:22:11;;;;;;;;;;;;;;;22.25;41.72;100789.00;5016702;28;1918;-56
2021/04/30 08:24:37;;;;;;;;;;;;;;;22.03;42.11;100782.28;5016725;28;1160;-53
2021/04/30 08:27:02;;;;;;;;;;;;;;;21.60;43.14;100780.69;5016479;28;757;-45
2021/04/30 08:29:28;;;;;;;;;;;;;;;21.58;43.23;100777.41;5016509;28;753;-56
2021/04/30 08:31:53;;;;;;;;;;;;;;;22.00;42.55;100782.91;5016150;28;952;-53
2021/04/30 08:34:18;;;;;;;;;;;;;;;22.16;41.91;100780.59;5030310;28;1113;-57
2021/04/30 08:36:44;;;;;;;;;;;;;;;22.34;41.65;100779.69;5036001;28;869;-56
2021/04/30 08:39:10;;;;;;;;;;;;;;;22.13;42.08;100775.69;5036299;28;752;-52
2021/04/30 08:41:36;;;;;;;;;;;;;;;22.00;42.54;100769.88;5030917;28;1910;-49
2021/04/30 08:44:02;;;;;;;;;;;;;;;21.82;42.79;100766.09;5016179;28;748;-44
2021/04/30 08:46:28;;;;;;;;;;;;;;;21.65;43.51;100768.69;5014902;28;960;-57
2021/04/30 08:48:54;;;;;;;;;;;;;;;21.93;42.47;100765.91;5016463;28;752;-57
2021/04/30 08:51:19;;;;;;;;;;;;;;;22.14;42.27;100764.31;5015441;28;840;-59
2021/04/30 08:53:45;;;;;;;;;;;;;;;22.44;41.26;100767.53;5016578;28;727;-52
2021/04/30 08:56:10;;;;;;;;;;;;;;;22.19;41.99;100766.16;5016541;28;745;-57
2021/04/30 08:58:37;;;;;;;;;;;;;;;22.04;42.33;100757.03;5016503;28;764;-47
2021/04/30 09:01:02;;;;;;;;;;;;;;;21.75;42.96;100764.91;5014520;28;1979;-49
2021/04/30 09:03:28;;;;;;;;;;;;;;;21.90;42.70;100761.81;5015278;28;1213;-56
2021/04/30 09:05:55;;;;;;;;;;;;;;;22.11;42.22;100762.16;5015631;28;853;-54
2021/04/30 09:08:21;;;;;;;;;;;;;;;22.36;41.70;100762.75;5016359;28;784;-51
2021/04/30 09:10:49;;;;;;;;;;;;;;;22.26;41.89;100768.47;5015444;28;1055;-55
2021/04/30 09:13:16;;;;;;;;;;;;;;;22.21;41.93;100761.91;5016874;28;752;-57
2021/04/30 09:15:42;;;;;;;;;;;;;;;21.73;43.10;100773.50;5018679;28;1025;-45
2021/04/30 09:18:15;;;;;;;;;;;;;;;21.97;42.78;100778.00;5019922;28;952;-58
2021/04/30 09:20:40;;;;;;;;;;;;;;;22.27;42.24;100767.34;5020542;28;1554;-51
2021/04/30 09:23:26;;;;;;;;;;;;;;;22.51;41.37;100769.84;5020007;28;1910;-48
2021/04/30 09:25:52;;;;;;;;;;;;;;;22.28;41.97;100757.91;5006448;28;1587;-45
2021/04/30 09:28:17;;;;;;;;;;;;;;;21.91;42.94;100757.06;5020227;28;740;-58
2021/04/30 09:30:42;;;;;;;;;;;;;;;21.81;42.93;100753.41;5020121;28;760;-45
2021/04/30 09:33:12;;;;;;;;;;;;;;;21.82;43.06;100755.03;5023497;28;952;-59
2021/04/30 09:35:37;;;;;;;;;;;;;;;22.19;42.31;100741.22;5039811;28;910;-47
2021/04/30 09:38:23;;;;;;;;;;;;;;;22.38;41.87;100741.06;5039512;28;803;-46
2021/04/30 09:40:49;;;;;;;;;;;;;;;22.22;42.06;100738.63;5039707;28;1554;-57
2021/04/30 09:43:15;;;;;;;;;;;;;;;22.26;42.31;100729.69;5038751;28;1989;-52
2021/04/30 09:45:40;;;;;;;;;;;;;;;22.10;42.23;100735.59;5022048;28;1104;-44
2021/04/30 09:48:07;;;;;;;;;;;;;;;21.68;43.46;100732.91;5023766;28;967;-45
2021/04/30 09:50:32;;;;;;;;;;;;;;;21.99;42.76;100731.41;5019673;28;748;-52
2021/04/30 09:53:01;;;;;;;;;;;;;;;22.20;42.14;100740.91;5020013;28;772;-47
2021/04/30 09:55:41;;;;;;;;;;;;;;;22.11;42.30;100742.78;5019567;28;780;-55
2021/04/30 09:58:26;;;;;;;;;;;;;;;22.21;42.19;100742.53;5019996;28;830;-46
2021/04/30 10:00:52;;;;;;;;;;;;;;;21.93;42.71;100743.75;5019640;28;737;-46
2021/04/30 10:03:26;;;;;;;;;;;;;;;21.77;43.58;100735.78;5018825;28;1910;-45
2021/04/30 10:06:10;;;;;;;;;;;;;;;22.08;42.79;100737.88;5019249;28;809;-47
2021/04/30 10:08:36;;;;;;;;;;;;;;;22.29;42.06;100712.47;5019451;28;753;-53
2021/04/30 10:11:01;;;;;;;;;;;;;;;22.24;42.32;100716.16;5019359;28;785;-46
2021/04/30 10:13:27;;;;;;;;;;;;;;;22.37;41.89;100725.56;5018933;28;489;-46
2021/04/30 10:15:52;;;;;;;;;;;;;;;21.87;42.95;100729.22;5001525;28;1096;-46
2021/04/30 10:18:18;;;;;;;;;;;;;;;21.64;44.08;100728.31;5018895;28;956;-51
2021/04/30 10:20:46;;;;;;;;;;;;;;;22.03;43.06;100732.44;5019153;28;749;-52
2021/04/30 10:23:16;;;;;;;;;;;;;;;22.34;42.37;100742.81;5018846;28;1914;-46
2021/04/30 10:25:42;;;;;;;;;;;;;;;22.18;43.02;100740.38;5016812;28;1030;-46
2021/04/30 10:28:07;;;;;;;;;;;;;;;22.25;43.00;100733.63;5019229;28;741;-52
2021/04/30 10:30:36;;;;;;;;;;;;;;;21.61;44.21;100720.63;5019284;28;761;-51
2021/04/30 10:33:10;;;;;;;;;;;;;;;22.07;43.39;100727.91;5021333;28;992;-47
2021/04/30 10:35:39;;;;;;;;;;;;;;;22.47;42.30;100725.34;5038711;28;744;-53
2021/04/30 10:38:05;;;;;;;;;;;;;;;22.26;42.95;100718.63;5038693;28;792;-51
2021/04/30 10:40:31;;;;;;;;;;;;;;;22.35;42.74;100716.78;5038418;28;741;-45
2021/04/30 10:42:58;;;;;;;;;;;;;;;22.11;43.04;100726.16;5038391;28;1974;-48
2021/04/30 10:45:24;;;;;;;;;;;;;;;21.68;44.42;100723.78;5037230;28;827;-55
2021/04/30 10:48:05;;;;;;;;;;;;;;;22.10;43.47;100727.28;5024910;28;1034;-45
2021/04/30 10:50:31;;;;;;;;;;;;;;;22.44;42.68;100714.06;5018637;28;760;-45
2021/04/30 10:53:17;;;;;;;;;;;;;;;22.15;43.62;100727.19;5018885;28;787;-54
2021/04/30 10:55:44;;;;;;;;;;;;;;;22.31;43.13;100711.00;5018512;28;1583;-45
2021/04/30 10:58:09;;;;;;;;;;;;;;;21.86;43.71;100711.75;5018831;28;792;-56
2021/04/30 11:00:40;;;;;;;;;;;;;;;21.84;44.37;100714.03;5017041;28;779;-52
2021/04/30 11:03:15;;;;;;;;;;;;;;;22.15;43.63;100713.31;5018243;28;1906;-54
2021/04/30 11:05:56;;;;;;;;;;;;;;;22.34;43.17;100715.13;5018332;28;772;-51
2021/04/30 11:08:40;;;;;;;;;;;;;;;22.34;43.42;100710.44;5018087;28;840;-46
2021/04/30 11:11:06;;;;;;;;;;;;;;;22.17;43.39;100711.06;5018676;28;906;-51
2021/04/30 11:13:32;;;;;;;;;;;;;;;21.74;44.15;100703.19;5016798;28;779;-46
2021/04/30 11:15:58;;;;;;;;;;;;;;;21.78;44.69;100706.94;5018610;28;744;-45
2021/04/30 11:18:24;;;;;;;;;;;;;;;22.07;44.02;100716.03;4997407;28;1271;-54
2021/04/30 11:21:18;;;;;;;;;;;;;;;22.28;43.75;100714.41;4998349;28;792;-53
2021/04/30 11:23:47;;;;;;;;;;;;;;;22.36;43.49;100707.34;4995485;28;1325;-54
2021/04/30 11:26:14;;;;;;;;;;;;;;;22.18;43.62;100706.34;4998288;28;1066;-50
2021/04/30 11:28:39;;;;;;;;;;;;;;;21.87;43.78;100705.09;4998172;28;776;-46
2021/04/30 11:31:05;;;;;;;;;;;;;;;21.64;45.46;100704.25;4998293;28;745;-55
2021/04/30 11:33:35;;;;;;;;;;;;;;;22.09;44.40;100697.97;5023570;28;1072;-52
2021/04/30 11:36:01;;;;;;;;;;;;;;;22.40;43.49;100694.50;5037030;28;776;-45
2021/04/30 11:38:53;;;;;;;;;;;;;;;22.36;43.61;100701.78;5037831;28;852;-45
2021/04/30 11:41:18;;;;;;;;;;;;;;;22.41;43.62;100698.06;5034429;28;1910;-45
2021/04/30 11:43:51;;;;;;;;;;;;;;;22.03;43.71;100682.59;5037210;28;783;-53
2021/04/30 11:46:16;;;;;;;;;;;;;;;21.75;45.33;100687.41;5036806;28;935;-45
2021/04/30 11:48:42;;;;;;;;;;;;;;;21.95;44.69;100683.34;5017176;28;991;-45
2021/04/30 11:51:08;;;;;;;;;;;;;;;22.34;43.60;100681.88;5015648;28;1180;-47
2021/04/30 11:53:34;;;;;;;;;;;;;;;22.27;43.66;100675.94;5017416;28;800;-50
2021/04/30 11:55:59;;;;;;;;;;;;;;;22.30;43.52;100675.31;5017518;28;764;-46
2021/04/30 11:58:38;;;;;;;;;;;;;;;21.89;44.03;100677.09;5017614;28;744;-54
2021/04/30 12:01:04;;;;;;;;;;;;;;;21.82;44.86;100677.53;5015503;28;1914;-55
2021/04/30 12:03:40;;;;;;;;;;;;;;;22.17;44.08;100654.84;5016739;28;964;-45
2021/04/30 12:06:07;;;;;;;;;;;;;;;22.29;43.72;100668.16;5017300;28;823;-51
2021/04/30 12:08:33;;;;;;;;;;;;;;;22.36;43.74;100665.78;5016070;28;816;-53
2021/04/30 12:10:58;;;;;;;;;;;;;;;22.33;43.46;100660.81;5016982;28;845;-45
2021/04/30 12:13:24;;;;;;;;;;;;;;;21.91;44.29;100647.19;5017005;28;781;-52
2021/04/30 12:15:49;;;;;;;;;;;;;;;21.92;44.89;100656.28;5015890;28;736;-54
2021/04/30 12:18:15;;;;;;;;;;;;;;;22.28;44.12;100656.22;5016810;28;960;-50
2021/04/30 12:20:41;;;;;;;;;;;;;;;22.45;43.70;100658.31;5017067;28;752;-46
2021/04/30 12:23:07;;;;;;;;;;;;;;;22.41;43.68;100654.56;5016708;28;1969;-49
2021/04/30 12:25:36;;;;;;;;;;;;;;;22.24;43.94;100654.41;5016820;28;1179;-51
2021/04/30 12:28:22;;;;;;;;;;;;;;;21.82;44.15;100646.28;5017524;28;769;-44
2021/04/30 12:30:51;;;;;;;;;;;;;;;21.74;45.76;100649.78;5003076;28;1833;-44
2021/04/30 12:33:20;;;;;;;;;;;;;;;22.03;44.58;100641.06;5021367;28;956;-55
2021/04/30 12:35:46;;;;;;;;;;;;;;;22.32;44.03;100639.81;5036595;28;752;-51
2021/04/30 12:38:11;;;;;;;;;;;;;;;22.33;44.19;100647.84;5036660;28;792;-48
2021/04/30 12:40:37;;;;;;;;;;;;;;;22.20;44.61;100643.13;5035952;28;790;-57
2021/04/30 12:43:02;;;;;;;;;;;;;;;22.08;44.53;100635.41;5036656;28;1906;-46
2021/04/30 12:45:27;;;;;;;;;;;;;;;21.73;44.40;100631.53;5036800;28;709;-49
2021/04/30 12:47:54;;;;;;;;;;;;;;;21.83;45.70;100623.00;5021571;28;932;-55
2021/04/30 12:50:21;;;;;;;;;;;;;;;22.19;44.92;100622.13;5016762;28;777;-48
2021/04/30 12:52:47;;;;;;;;;;;;;;;22.58;44.00;100614.22;5016459;28;728;-53